LPPTLPCS

Guest
Details From LPPT - Lisboa
To LPCS - Cascais
Flight Number -
Tags Routegen Generated
Created
Modified
Stats Distance 16 nm / 30 km
Max Altitude 100 ft / 30 m
Waypoints 5
Social Downloads 21
Likes 0
Share

Download

Looking for another format? Having issues loading an existing format? Contact us
Advertisement - Login to hide

Notes

Departing runway 20 LPPT. Arriving runway 16 LPCS.

Route

LPPT +38.70_-009.18 +38.67_-009.25 +38.65_-009.33 LPCS

ID Type Via Altitude (ft/m) Position (lat/lon) Dist (leg/tot) Name
O LPPT APT - 0 / 0 38.76569 / -9.14438 - / 0 nm
+38.70_-009.18 LATLON - 100 / 30 38.69893 / -9.18019 4 / 4 nm
+38.67_-009.25 LATLON - 100 / 30 38.67425 / -9.25395 3 / 8 nm
+38.65_-009.33 LATLON - 100 / 30 38.64957 / -9.32770 3 / 11 nm
O LPCS APT - 0 / 0 38.71919 / -9.35302 4 / 16 nm

Altitude Profile

Advertisement - Login to hide

LPPT

Details ICAO LPPT (LIS)
Name Lisboa Humberto Delgado
Region Portugal
Timezone Europe/Lisbon (UTC+0.0)
Stats Elevation 374 ft / 114 m (AMSL)
Location 38.778800° -9.135190°
Runways 2
Magnetic Variation 1.748° W

METAR

LPPT 291130Z 04005KT 010V080 CAVOK 15/08 Q1024

Decode

TAF

TAF TAF LPPT 290500Z 2906/3012 35005KT CAVOK PROB30 2906/2909 5000 BR SCT003 BECMG 2909/2911 03008KT BECMG 2917/2920 32008KT BECMG 3003/3005 VRB02KT 5000 BR SCT008 PROB40 TEMPO 3005/3010 1200 PRFG BKN003

Decode

Departure Runways

ID Width Length Bearing (true/mag) Surface Threshold Overrun Markings Lighting
03 148 ft / 45 m 12,505 ft / 3,812 m 22.65° / 24.39° ASPHALT 302 ft / 92 m 0 ft / 0 m PREC-APP CENTERLINE EDGE THRESHOLD ALSF-II TDZ REIL-OMNI
17 148 ft / 45 m 7,612 ft / 2,320 m 168.14° / 169.89° ASPHALT 0 ft / 0 m 0 ft / 0 m PREC-APP CENTERLINE EDGE THRESHOLD REIL-OMNI
21 148 ft / 45 m 12,505 ft / 3,812 m 202.66° / 204.41° ASPHALT 1,965 ft / 599 m 0 ft / 0 m PREC-APP CENTERLINE EDGE THRESHOLD ALSF-II TDZ REIL-OMNI
35 148 ft / 45 m 7,612 ft / 2,320 m 348.14° / 349.89° ASPHALT 194 ft / 59 m 299 ft / 91 m PREC-APP CENTERLINE EDGE THRESHOLD ALSF-I REIL-OMNI

LPCS

Details ICAO LPCS (CAT)
Name Cascais
Region Portugal
Timezone Europe/Lisbon (UTC+0.0)
Stats Elevation 326 ft / 99 m (AMSL)
Location 38.725100° -9.355190°
Runways 1
Magnetic Variation 1.818° W

METAR

LPCS 291130Z 02008KT 9999 FEW030 16/08 Q1024

Decode

TAF

Not found

Destination Runways

ID Width Length Bearing (true/mag) Surface Threshold Overrun Markings Lighting
17 97 ft / 30 m 5,519 ft / 1,682 m 164.13° / 165.95° CONCRETE 1,083 ft / 330 m 0 ft / 0 m APP EDGE THRESHOLD
35 97 ft / 30 m 5,519 ft / 1,682 m 344.13° / 345.95° CONCRETE 459 ft / 140 m 0 ft / 0 m APP EDGE THRESHOLD

Popular Alternatives